Latest Weather Observations for Meekatharra

IDW60801

Issued at 9:03 pm WST Sunday 20 August 2017 (issued every 30 minutes, with the page automatically refreshed every 10 minutes)

About weather observations | Map of weather stations | Latest weather observations for WA | Other Formats
Station Details ID: 007045 Name: MEEKATHARRA AIRPORT Lat: -26.61 Lon: 118.54 Height: 517.0 m
Data from the previous 72 hours. | See also: Recent months at Meekatharra
Date/Time
WST
Temp
°C
App
Temp
°C
Dew
Point
°C
Rel
Hum
%
Delta-T
°C
Wind Press
QNH
hPa
Press
MSL
hPa
Rain since
9am
mm
Dir  Spd
km/h
Gust
km/h
Spd
kts
Gust
kts
20/09:00pm 14.1 9.4 3.3 48 5.0 SE 17 26 9 14 1021.5 1020.6 0.0
20/08:30pm 14.5 10.5 3.0 46 5.3 SSE 13 19 7 10 1021.5 1020.6 0.0
20/08:00pm 15.0 11.0 2.9 44 5.6 SSE 13 20 7 11 1021.3 1020.4 0.0
20/07:30pm 15.5 11.5 2.7 42 5.9 SSE 13 17 7 9 1021.2 1020.3 0.0
20/07:00pm 15.9 11.8 2.3 40 6.2 SSE 13 15 7 8 1021.0 1020.1 0.0
20/06:30pm 16.6 12.1 2.2 38 6.7 SE 15 20 8 11 1020.7 1019.8 0.0
20/06:00pm 17.2 13.1 2.4 37 6.9 SE 13 19 7 10 1020.7 1019.8 0.0
20/05:30pm 18.0 12.5 1.9 34 7.5 SSE 20 30 11 16 1020.6 1019.7 0.0
20/05:00pm 18.6 13.7 2.0 33 7.7 SE 17 26 9 14 1020.5 1019.6 0.0
20/04:30pm 18.8 13.6 2.2 33 7.8 SSE 19 28 10 15 1020.2 1019.2 0.0
20/04:00pm 18.9 13.4 1.9 32 7.9 SSE 20 30 11 16 1020.2 1019.2 0.0
20/03:30pm 18.6 12.6 1.2 31 8.0 SE 22 33 12 18 1020.2 1019.2 0.0
20/03:00pm 19.0 13.7 2.0 32 8.0 SSE 19 26 10 14 1020.4 1019.5 0.0
20/02:30pm 19.0 13.6 2.4 33 7.8 SSE 20 32 11 17 1020.5 1019.6 0.0
20/02:00pm 18.6 12.7 2.0 33 7.7 SE 22 35 12 19 1020.7 1019.8 0.0
20/01:30pm 17.4 12.3 3.0 38 6.8 SE 19 32 10 17 1021.3 1020.4 0.0
20/01:00pm 17.1 12.0 3.1 39 6.6 SSE 19 26 10 14 1021.7 1020.8 0.0
20/12:30pm 15.8 10.6 3.6 44 5.8 SSE 20 28 11 15 1022.3 1021.4 0.0
20/12:00pm 15.4 10.9 4.2 47 5.3 SSE 17 28 9 15 1022.8 1021.9 0.0
20/11:30am 14.3 10.1 4.0 50 4.9 SSE 15 22 8 12 1023.4 1022.5 0.0
20/11:00am 12.6 8.2 4.8 59 3.7 SE 17 24 9 13 1024.0 1023.2 0.0
20/10:30am 11.3 6.5 4.7 64 3.1 SSE 19 28 10 15 1024.5 1023.6 0.0
20/10:03am 11.0 5.7 4.9 66 2.9 S 22 32 12 17 1024.8 1023.9 0.0
20/10:00am 10.7 5.7 4.8 67 2.7 S 20 32 11 17 1024.8 1023.9 0.0
20/09:30am 9.7 4.8 5.3 74 2.1 S 20 30 11 16 1024.9 1024.0 0.0
20/09:00am 8.7 3.6 5.8 82 1.4 S 22 28 12 15 1024.8 1023.9 0.0
20/08:30am 8.0 2.0 5.3 83 1.2 S 26 33 14 18 1024.5 1023.6 0.0
20/08:00am 8.1 2.4 4.9 80 1.5 S 24 30 13 16 1023.9 1023.1 0.0
20/07:33am 8.2 4.2 5.0 80 1.5 SSW 15 32 8 17 1023.4 1022.5 0.0
20/07:30am 8.1 4.4 4.5 78 1.6 SSW 13 19 7 10 1023.4 1022.5 0.0
20/07:00am 7.3 3.5 3.9 79 1.5 SSW 13 15 7 8 1023.0 1022.1 0.0
20/06:30am 6.5 3.0 3.3 80 1.4 SSW 11 13 6 7 1022.7 1021.8 0.0
20/06:00am 6.8 3.2 3.2 78 1.6 SSW 11 15 6 8 1022.6 1021.7 0.0
20/05:30am 7.3 3.4 3.4 76 1.7 SSW 13 15 7 8 1022.3 1021.4 0.0
20/05:00am 7.4 3.5 3.3 75 1.8 SW 13 19 7 10 1022.0 1021.2 0.0
20/04:30am 7.7 3.8 3.2 73 2.0 SSW 13 19 7 10 1021.8 1021.0 0.0
20/04:00am 8.0 4.0 3.1 71 2.1 SSW 13 17 7 9 1021.7 1020.8 0.0
20/03:30am 8.7 3.6 3.1 68 2.5 SSW 19 26 10 14 1021.6 1020.7 0.0
20/03:00am 9.1 4.4 3.1 66 2.6 SSW 17 20 9 11 1021.7 1020.8 0.0
20/02:30am 9.5 4.2 3.0 64 2.9 SSW 20 26 11 14 1021.4 1020.5 0.0
20/02:00am 10.0 4.7 3.1 62 3.1 SSW 20 32 11 17 1021.1 1020.2 0.0
20/01:30am 10.1 5.4 3.4 63 3.0 SSW 17 22 9 12 1021.1 1020.2 0.0
20/01:00am 10.3 6.4 3.3 62 3.1 SSW 13 17 7 9 1021.1 1020.2 0.0
20/12:30am 10.6 6.7 3.2 60 3.3 SSW 13 20 7 11 1020.9 1020.0 0.0
20/12:00am 11.1 6.8 3.2 58 3.6 SSW 15 20 8 11 1020.8 1019.9 0.0
 
Date/Time
WST
Temp
°C
App
Temp
°C
Dew
Point
°C
Rel
Hum
%
Delta-T
°C
Wind Press
QNH
hPa
Press
MSL
hPa
Rain since
9am
mm
Dir  Spd
km/h
Gust
km/h
Spd
kts
Gust
kts
19/11:30pm 11.5 6.8 3.0 56 3.8 SSW 17 24 9 13 1020.8 1019.9 0.0
19/11:00pm 11.9 7.2 3.2 55 3.9 SSW 17 22 9 12 1020.8 1019.9 0.0
19/10:30pm 12.5 7.8 2.9 52 4.4 SSW 17 24 9 13 1020.7 1019.8 0.0
19/10:00pm 13.0 7.9 3.1 51 4.5 SSW 19 26 10 14 1020.6 1019.7 0.0
19/09:30pm 13.5 8.4 3.0 49 4.8 SSW 19 26 10 14 1020.6 1019.7 0.0
19/09:00pm 14.2 8.4 2.5 45 5.3 SW 22 33 12 18 1020.3 1019.4 0.0
19/08:30pm 14.5 10.5 2.7 45 5.4 SW 13 17 7 9 1020.1 1019.1 0.0
19/08:00pm 15.0 10.6 2.5 43 5.7 SW 15 19 8 10 1019.8 1018.9 0.0
19/07:30pm 15.4 11.3 2.2 41 6.0 SW 13 17 7 9 1019.6 1018.7 0.0
19/07:00pm 16.0 11.5 2.4 40 6.3 SW 15 20 8 11 1019.2 1018.3 0.0
19/06:30pm 16.4 12.1 3.1 41 6.3 SW 15 20 8 11 1018.8 1017.9 0.0
19/06:00pm 17.0 11.9 3.0 39 6.6 WSW 19 26 10 14 1018.4 1017.4 0.0
19/05:30pm 17.8 12.5 2.9 37 7.1 SSW 20 32 11 17 1017.9 1017.0 0.0
19/05:00pm 18.6 13.2 2.4 34 7.6 WNW 20 30 11 16 1017.6 1016.7 0.0
19/04:30pm 18.8 13.4 2.6 34 7.7 W 20 39 11 21 1017.4 1016.5 0.0
19/04:00pm 19.2 13.8 2.6 33 7.9 WNW 20 32 11 17 1017.3 1016.4 0.0
19/03:30pm 18.3 14.7 4.8 41 6.7 WSW 13 20 7 11 1017.5 1016.6 0.0
19/03:00pm 17.8 13.5 5.4 44 6.2 WSW 17 24 9 13 1017.6 1016.7 0.0
19/02:30pm 18.0 14.2 5.9 45 6.1 WSW 15 30 8 16 1017.5 1016.6 0.0
19/02:00pm 17.0 12.8 5.6 47 5.7 WSW 17 28 9 15 1017.7 1016.8 0.0
19/01:30pm 17.4 12.8 5.7 46 5.8 WSW 19 32 10 17 1017.8 1016.9 0.0
19/01:00pm 17.2 12.4 5.5 46 5.8 WSW 20 30 11 16 1017.9 1017.0 0.0
19/12:30pm 18.0 13.7 6.8 48 5.7 SW 19 26 10 14 1018.1 1017.1 0.0
19/12:00pm 17.6 12.5 6.2 47 5.7 SW 22 35 12 19 1018.5 1017.5 0.0
19/11:30am 17.0 11.9 5.9 48 5.5 SW 22 33 12 18 1018.7 1017.8 0.0
19/11:00am 17.0 11.9 4.3 43 6.1 SW 20 30 11 16 1019.0 1018.1 0.0
19/10:30am 17.3 13.3 6.8 50 5.4 SW 17 28 9 15 1019.3 1018.4 0.0
19/10:00am 15.7 11.5 5.6 51 5.0 WSW 17 24 9 13 1019.5 1018.6 0.0
19/09:30am 15.1 10.5 6.7 57 4.2 SW 20 26 11 14 1019.5 1018.6 0.0
19/09:00am 14.6 10.4 5.9 56 4.3 WSW 17 26 9 14 1019.5 1018.6 0.0
19/08:30am 14.1 10.4 6.2 59 3.9 SW 15 22 8 12 1019.2 1018.3 0.0
19/08:00am 13.8 10.0 5.9 59 3.9 SW 15 20 8 11 1018.9 1018.0 0.0
19/07:30am 13.1 10.1 5.8 61 3.5 SW 11 15 6 8 1018.6 1017.7 0.0
19/07:00am 12.5 9.8 5.4 62 3.4 SW 9 13 5 7 1018.2 1017.2 0.0
19/06:30am 12.2 9.9 5.6 64 3.2 SW 7 11 4 6 1017.8 1016.9 0.0
19/06:00am 12.5 9.0 5.4 62 3.4 SW 13 17 7 9 1017.5 1016.6 0.0
19/05:30am 12.5 9.0 5.4 62 3.4 SW 13 17 7 9 1017.3 1016.4 0.0
19/05:00am 12.4 8.8 5.1 61 3.5 SW 13 17 7 9 1017.1 1016.2 0.0
19/04:30am 13.0 9.4 4.9 58 3.9 WSW 13 19 7 10 1016.9 1016.0 0.0
19/04:00am 13.4 9.8 4.8 56 4.1 SW 13 17 7 9 1016.6 1015.6 0.0
19/03:30am 13.8 10.2 4.9 55 4.3 SW 13 19 7 10 1016.3 1015.3 0.0
19/03:00am 14.1 10.1 4.9 54 4.4 SW 15 19 8 10 1016.1 1015.1 0.0
19/02:30am 14.7 10.3 5.0 52 4.7 WSW 17 22 9 12 1016.1 1015.1 0.0
19/02:00am 15.2 11.6 4.9 50 5.0 WSW 13 20 7 11 1016.1 1015.1 0.0
19/01:30am 14.9 12.0 4.6 50 4.9 WSW 9 11 5 6 1015.8 1014.9 0.0
19/01:00am 15.7 12.4 4.7 48 5.3 WSW 11 13 6 7 1015.7 1014.8 0.0
19/12:30am 16.3 13.4 4.4 45 5.7 WSW 9 11 5 6 1015.7 1014.8 0.0
19/12:00am 17.0 13.3 4.7 44 6.0 SW 13 15 7 8 1015.6 1014.7 0.0
 
Date/Time
WST
Temp
°C
App
Temp
°C
Dew
Point
°C
Rel
Hum
%
Delta-T
°C
Wind Press
QNH
hPa
Press
MSL
hPa
Rain since
9am
mm
Dir  Spd
km/h
Gust
km/h
Spd
kts
Gust
kts
18/11:30pm 17.7 14.4 4.6 42 6.4 WSW 11 13 6 7 1015.8 1014.9 0.0
18/11:00pm 18.5 15.2 4.3 39 6.9 SW 11 17 6 9 1015.7 1014.8 0.0
18/10:30pm 19.6 15.5 4.5 37 7.5 WSW 15 24 8 13 1015.8 1014.9 0.0
18/10:00pm 20.5 16.4 4.1 34 8.1 W 15 22 8 12 1015.6 1014.7 0.0
18/09:30pm 21.3 17.1 4.0 32 8.6 NW 15 20 8 11 1015.4 1014.5 0.0
18/09:00pm 21.8 17.2 3.5 30 9.0 NW 17 20 9 11 1015.5 1014.6 0.0
18/08:30pm 20.7 17.3 3.9 33 8.3 NNW 11 13 6 7 1015.7 1014.8 0.0
18/08:00pm 20.5 17.1 4.1 34 8.1 N 11 13 6 7 1015.7 1014.8 0.0
18/07:30pm 21.0 17.5 3.7 32 8.5 N 11 11 6 6 1015.5 1014.6 0.0
18/07:00pm 21.6 18.1 3.3 30 9.0 N 11 11 6 6 1015.5 1014.6 0.0
18/06:30pm 22.2 19.0 3.3 29 9.3 NNW 9 11 5 6 1015.3 1014.4 0.0
18/06:00pm 23.8 19.8 2.6 25 10.4 NNW 13 17 7 9 1015.1 1014.1 0.0
18/05:30pm 24.8 19.0 2.3 23 11.1 NNW 22 32 12 17 1014.9 1013.9 0.0
18/05:00pm 25.8 19.2 1.8 21 11.8 NW 26 39 14 21 1014.5 1013.5 0.0
18/04:30pm 26.3 20.0 1.6 20 12.1 NW 24 33 13 18 1014.6 1013.6 0.0
18/04:00pm 26.8 20.2 2.0 20 12.3 NW 26 39 14 21 1014.6 1013.6 0.0
18/03:30pm 27.1 20.0 1.5 19 12.6 NW 28 41 15 22 1014.5 1013.5 0.0
18/03:00pm 27.2 20.3 2.3 20 12.4 NNW 28 43 15 23 1014.6 1013.6 0.0
18/02:31pm 26.5 19.3 1.0 19 12.4 NNW 28 46 15 25 1014.6 1013.6 0.0
18/02:30pm 27.0 20.3 1.4 19 12.6 NNW 26 46 14 25 1014.6 1013.6 0.0
18/02:13pm 26.7 19.2 1.2 19 12.5 NNW 30 48 16 26 1014.7 1013.7 0.0
18/02:00pm 26.7 19.3 1.9 20 12.3 NNW 30 44 16 24 1014.8 1013.8 0.0
18/01:30pm 26.1 18.9 0.7 19 12.3 NNW 28 39 15 21 1015.1 1014.1 0.0
18/01:00pm 26.1 18.6 1.4 20 12.1 NNW 30 43 16 23 1015.5 1014.6 0.0
18/12:30pm 25.5 18.0 0.9 20 11.9 N 30 43 16 23 1016.1 1015.1 0.0
18/12:13pm 24.9 17.4 1.1 21 11.5 N 30 48 16 26 1016.4 1015.4 0.0
18/12:00pm 25.0 17.9 1.2 21 11.5 N 28 41 15 22 1016.7 1015.7 0.0
18/11:30am 23.9 16.0 0.9 22 11.0 N 32 46 17 25 1017.2 1016.3 0.0
18/11:00am 22.8 14.8 0.6 23 10.4 NNE 32 46 17 25 1017.7 1016.8 0.0
18/10:30am 21.9 14.2 -0.1 23 10.1 NNE 30 41 16 22 1017.9 1017.0 0.0
18/10:00am 20.6 13.3 -0.1 25 9.4 NNE 28 41 15 22 1018.3 1017.3 0.0
18/09:30am 19.4 12.5 -0.1 27 8.8 NNE 26 41 14 22 1018.3 1017.3 0.0
18/09:00am 17.6 9.9 -0.2 30 7.9 NNE 30 46 16 25 1018.2 1017.2 0.0
18/08:30am 16.4 9.1 0.1 33 7.2 NNE 28 39 15 21 1018.2 1017.2 0.0
18/08:00am 15.2 9.3 -0.5 34 6.8 NE 20 35 11 19 1018.2 1017.2 0.0
18/07:30am 13.8 7.7 0.1 39 5.9 NE 22 28 12 15 1018.1 1017.1 0.0
18/07:00am 12.9 7.1 -0.4 40 5.6 NE 20 32 11 17 1017.7 1016.8 0.0
18/06:30am 12.9 7.3 0.0 41 5.5 NE 19 28 10 15 1017.6 1016.7 0.0
18/06:00am 13.0 7.4 0.1 41 5.5 NE 19 28 10 15 1017.3 1016.4 0.0
18/05:30am 13.1 7.5 0.2 41 5.5 NE 19 28 10 15 1017.0 1016.1 0.0
18/05:00am 12.3 7.6 1.0 46 4.9 ENE 15 19 8 10 1017.0 1016.1 0.0
18/04:30am 11.8 7.5 0.9 47 4.7 ENE 13 15 7 8 1016.8 1015.8 0.0
18/04:00am 11.1 6.8 1.1 50 4.3 ENE 13 15 7 8 1016.9 1016.0 0.0
18/03:30am 11.1 6.8 1.1 50 4.3 E 13 15 7 8 1016.9 1016.0 0.0
18/03:00am 11.4 7.5 1.1 49 4.4 ENE 11 15 6 8 1017.1 1016.2 0.0
18/02:30am 11.6 7.3 1.0 48 4.6 E 13 17 7 9 1017.2 1016.3 0.0
18/02:00am 11.5 7.2 0.9 48 4.5 E 13 17 7 9 1017.4 1016.5 0.0
18/01:30am 11.2 7.3 0.9 49 4.4 ENE 11 15 6 8 1017.6 1016.7 0.0
18/01:00am 11.7 7.7 0.8 47 4.7 ENE 11 15 6 8 1017.6 1016.7 0.0
18/12:30am 11.7 7.8 1.1 48 4.6 E 11 15 6 8 1017.9 1017.0 0.0
18/12:00am 12.2 7.5 0.9 46 4.9 E 15 17 8 9 1017.8 1016.9 0.0
 
Date/Time
WST
Temp
°C
App
Temp
°C
Dew
Point
°C
Rel
Hum
%
Delta-T
°C
Wind Press
QNH
hPa
Press
MSL
hPa
Rain since
9am
mm
Dir  Spd
km/h
Gust
km/h
Spd
kts
Gust
kts
17/11:30pm 12.7 8.4 1.1 45 5.1 E 13 17 7 9 1017.8 1016.9 0.0
17/11:00pm 12.4 8.5 1.4 47 4.8 E 11 13 6 7 1017.9 1017.0 0.0
17/10:30pm 12.5 8.8 2.1 49 4.6 E 11 15 6 8 1018.3 1017.3 0.0
17/10:00pm 13.0 8.9 2.0 47 4.9 ESE 13 15 7 8 1018.5 1017.5 0.0
17/09:30pm 13.4 9.6 1.7 45 5.2 ESE 11 13 6 7 1018.7 1017.8 0.0

Other Formats:

Comma delimited format used in spreadsheet applications
http://www.bom.gov.au/fwo/IDW60801/IDW60801.94430.axf

JavaScript Object Notation format (JSON) in row-major order
http://www.bom.gov.au/fwo/IDW60801/IDW60801.94430.json